Gladwin, Iowa
Current Conditions -  °F | °C
As of 1:35 PM on Thursday 23 Oct 2014 (Local Time) from KAWG Reporting Station
Overcast Overcast  
Wind Chill: 64°   Ceiling: 2200
Heat Index: 64°   Visibility: 10mi
Dew Point: 52°   Wind: 8mph
Humidity: 64%   Direction: 220°SW
Pressure: 30.05"   Gusts: NA
Location:  41.2636°N, 91.4145°W
Report Text: KAWG 231835Z AUTO 22007KT 10SM BKN022 BKN050 OVC100 18/11 A3005 RMK AO2
Loading
Personal Weather Stations






























Interactive Weather Map New forecast layout! Learn more

10-Day Weather Forecast

Advertisements
Track Severe Weather on mobile